Tiempo atmosférico en la estación meteorológica de Ballobar, Huesca (178 m.)



Fecha
DESCASC
Temp. máxima en grados centígrados (hora)
DESCASC
Temp. mínima en grados centígrados (hora)
DESCASC
Temp. media en grados centígrados
DESCASC
Racha de viento máxima en m/sg (hora)
DESCASC
Velocidad máxima media en intervalos de 10 minutos(hora)
DESCASC
Precipitaciones diarias en mm
DESCASC
Precipitaciones de 00:00 a 06:00 en mm
DESCASC
Precipitaciones de 06:00 a 12:00 en mm
DESCASC
Precipitaciones de 12:00 a 18:00 en mm
DESCASC
Precipitaciones de 18:00 a 24:00 en mm
DESCASC
18-04-2019 19.1 (15:50) 9 (08:10) 14.1 13.89 (22:20) 9.17 (22:20) 0 0 0 0 0
17-04-2019 20.5 (16:00) 7.2 (07:00) 13.8 12.78 (17:50) 7.78 (17:30) 0 0 0 0 0
16-04-2019 21 (15:30) 8.2 (00:00) 14.6 9.17 (19:20) 5.83 (19:20) 1 1 0 0 0
15-04-2019 18.9 (12:30) 10.5 (00:00) 14.7 13.61 (17:50) 8.89 (17:10) 0 0 0 0 0
14-04-2019 25.6 (16:30) 6.7 (00:00) 16.2 16.11 (18:10) 10.28 (18:10) 0 0 0 0 0
13-04-2019 23.7 (17:50) 2.6 (00:00) 13.2 8.89 (18:00) 5.83 (19:00) 0 0 0 0 0
12-04-2019 21.8 (18:10) 4.8 (00:00) 13.3 13.06 (00:50) 8.89 (00:20) 0 0 0 0 0
11-04-2019 19.9 (16:20) 7.7 (00:00) 13.8 15.28 (18:10) 9.72 (18:10) 0 0 0 0 0
10-04-2019 19.7 (15:50) 5.3 (00:00) 12.5 8.89 (03:00) 5.28 (02:40) 0 0 0 0 0
09-04-2019 19 (17:40) 8.1 (00:00) 13.6 12.5 (11:00) 8.89 (20:20) 3.4 3.4 0 0 0
08-04-2019 19.6 (18:30) 6 (00:00) 12.8 10.28 (19:40) 5.83 (19:50) 2.8 0 0 0 2.8
07-04-2019 17.1 (17:30) 5.7 (00:00) 11.4 13.89 (11:50) 9.17 (11:30) 0 0 0 0 0
06-04-2019 15.6 (17:40) 6.8 (00:00) 11.2 13.61 (00:50) 8.89 (00:50) 0.8 0.8 0 0 0
05-04-2019 16.9 (15:30) 5.9 (00:00) 11.4 8.61 (10:00) 5.56 (10:00) 9.4 0 0.6 1.4 7.4
04-04-2019 15.7 (18:30) 4.2 (00:00) 9.9 14.17 (11:10) 9.17 (11:10) 0 0 0 0 0
03-04-2019 13.8 (13:30) 6.7 (00:00) 10.3 14.72 (20:10) 9.17 (21:20) 0 0 0 0 0
02-04-2019 21.4 (17:30) 8.5 (00:00) 14.9 9.44 (21:50) 6.94 (21:50) 0 0 0 0 0
01-04-2019 16 (18:20) 9.2 (00:00) 12.6 5.28 (15:00) 2.78 (14:50) 0.8 0.4 0.4 0 0
31-03-2019 14.6 (17:30) 2.6 (00:00) 8.6 3.33 (14:50) 2.22 (15:00) 0 0 0 0 0
30-03-2019 19.2 (17:40) 1.5 (00:00) 10.4 8.33 (20:50) 4.72 (14:10) 0 0 0 0 0
29-03-2019 19.6 (14:30) 2.5 (00:00) 11.1 9.72 (17:20) 5.56 (14:40) 0 0 0 0 0
28-03-2019 20 (17:00) 1.8 (00:00) 10.9 8.33 (14:20) 3.61 (13:50) 0 0 0 0 0
27-03-2019 20.7 (16:50) 0.5 (00:00) 10.6 6.67 (14:10) 3.61 (14:10) 0 0 0 0 0
26-03-2019 21.7 (17:00) 2.5 (00:00) 12.1 9.72 (20:00) 5.28 (14:40) 0 0 0 0 0
25-03-2019 22.1 (14:50) 5.4 (00:00) 13.8 10.56 (15:20) 6.94 (15:20) 0 0 0 0 0
24-03-2019 24.6 (16:30) 3.7 (00:00) 14.2 5 (14:30) 3.89 (23:10) 0 0 0 0 0
23-03-2019 23.5 (16:30) 3.2 (00:00) 13.4 4.72 (15:10) 2.78 (09:30) 0 0 0 0 0
22-03-2019 20.3 (16:20) 0.5 (00:00) 10.4 4.17 (11:00) 3.06 (23:40) 0 0 0 0 0
21-03-2019 18 (15:30) 0.3 (00:00) 9.2 5.28 (15:30) 3.61 (21:30) 0 0 0 0 0

Gráficas

Temp. máximas Temp. mínimas Temp. medias Precipitaciones Rachas de viento máximas Velocidades máximas media en intervalos de 10 minutos

Datos horarios

Fecha y hora oficial Temperatura (ºC) Velocidad del viento (km/h) Dirección del viento Racha (km/h) Dirección de racha Precipitación (mm) Presión (hPa) Tendencia (hPa) Humedad (%)
2019-04-19 23:00:00 16.4 5 Nordeste 14 Nordeste 0 -- -- 42
2019-04-19 22:00:00 16.7 4 Norte 24 Nordeste 0 -- -- 40
2019-04-19 21:00:00 18.1 15 Nordeste 31 Nordeste 0 -- -- 40
2019-04-19 20:00:00 20 18 Este 37 Este 0 -- -- 35
2019-04-19 19:00:00 20.7 22 Este 35 Este 0 -- -- 38
2019-04-19 18:00:00 21.1 19 Este 36 Nordeste 0 -- -- 39
2019-04-19 17:00:00 21 28 Nordeste 45 Nordeste 0 -- -- 39
2019-04-19 16:00:00 20.5 26 Este 45 Este 0 -- -- 41
2019-04-19 15:00:00 20.1 33 Este 52 Este 0 -- -- 46
2019-04-19 14:00:00 19.6 30 Este 52 Nordeste 0 -- -- 48
2019-04-19 13:00:00 19 28 Este 47 Este 0 -- -- 49
2019-04-19 12:00:00 18.2 28 Este 47 Este 0 -- -- 49
2019-04-19 11:00:00 17.2 28 Este 42 Este 0 -- -- 53
2019-04-19 10:00:00 16.4 23 Este 44 Nordeste 0 -- -- 53
2019-04-19 09:00:00 15.3 31 Este 45 Este 0 -- -- 55
2019-04-19 08:00:00 14.3 12 Nordeste 26 Nordeste 0 -- -- 56
2019-04-19 07:00:00 14.5 14 Este 31 Este 0 -- -- 55
2019-04-19 06:00:00 14.8 16 Este 38 Este 0 -- -- 55
2019-04-19 05:00:00 14.3 22 Este 40 Nordeste 0 -- -- 56
2019-04-19 04:00:00 14.9 22 Este 43 Este 0 -- -- 53
2019-04-19 03:00:00 14.7 12 Este 33 Este 0 -- -- 58
2019-04-19 02:00:00 15.1 18 Este 33 Este 0 -- -- 53
2019-04-19 01:00:00 15.2 7 Sudeste 30 Este 0 -- -- 53
2019-04-19 00:00:00 15.6 17 Este 41 Este 0 -- -- 54
2019-04-18 23:00:00 15.9 24 Este 50 Este 0 -- -- 52
2019-04-18 22:00:00 16.7 24 Este 33 Este 0 -- -- 56
2019-04-18 21:00:00 17 21 Este 42 Este 0 -- -- 56
2019-04-18 20:00:00 17.6 22 Este 49 Este 0 -- -- 54
2019-04-18 19:00:00 18.4 32 Este 46 Este 0 -- -- 51
2019-04-18 18:00:00 18.7 26 Este 39 Este 0 -- -- 50
2019-04-18 17:00:00 19.1 23 Este 46 Este 0 -- -- 47
2019-04-18 16:00:00 19 29 Este 50 Este 0 -- -- 47
2019-04-18 15:00:00 17.3 19 Este 45 Este 0 -- -- 54
2019-04-18 14:00:00 16.3 25 Este 40 Nordeste 0 -- -- 56
2019-04-18 13:00:00 15 14 Este 24 Este 0 -- -- 58
2019-04-18 12:00:00 13.3 9 Nordeste 29 Nordeste 0 -- -- 78
2019-04-18 11:00:00 11.9 9 Nordeste 16 Este 0 -- -- 88
2019-04-18 10:00:00 11.5 6 Nordeste 15 Este 0 -- -- 85
2019-04-18 09:00:00 11.2 6 Este 9 Nordeste 0 -- -- 84
2019-04-18 08:00:00 9.1 6 Noroeste 8 Noroeste 0 -- -- 90
2019-04-18 07:00:00 9.6 2 Oeste 10 Este 0 -- -- 88
2019-04-18 06:00:00 10.2 2 Norte 14 Nordeste 0 -- -- 86
2019-04-18 05:00:00 10.7 8 Nordeste 19 Este 0 -- -- 83
2019-04-18 04:00:00 11.8 11 Este 22 Este 0 -- -- 78
2019-04-18 03:00:00 12.1 17 Este 25 Sudeste 0 -- -- 76
2019-04-18 02:00:00 11.6 4 Este 11 Oeste 0 -- -- 76
2019-04-18 01:00:00 12.9 4 Oeste 23 Este 0 -- -- 71
2019-04-18 00:00:00 13.3 10 Este 31 Este 0 -- -- 69
2019-04-17 23:00:00 13.7 17 Este 44 Este 0 -- -- 65
2019-04-17 22:00:00 15.4 24 Este 43 Este 0 -- -- 56
2019-04-17 21:00:00 15.7 22 Este 41 Este 0 -- -- 57
2019-04-17 20:00:00 16.6 23 Este 40 Este 0 -- -- 58
2019-04-17 19:00:00 17.5 23 Este 45 Este 0 -- -- 56
2019-04-17 18:00:00 18.8 26 Este 46 Este 0 -- -- 52
2019-04-17 17:00:00 19.8 19 Sudeste 38 Este 0 -- -- 49
2019-04-17 16:00:00 20.5 24 Sudeste 38 Este 0 -- -- 49
2019-04-17 15:00:00 19.7 23 Este 39 Sudeste 0 -- -- 52
2019-04-17 14:00:00 18.6 24 Este 39 Este 0 -- -- 55
2019-04-17 13:00:00 17.2 22 Este 37 Este 0 -- -- 60
2019-04-17 12:00:00 16.5 18 Este 32 Este 0 -- -- 62
2019-04-17 11:00:00 15.7 17 Este 27 Sudeste 0 -- -- 64
2019-04-17 10:00:00 13.6 8 Nordeste 12 Este 0 -- -- 72
2019-04-17 09:00:00 11.2 5 Este 10 Este 0 -- -- 80
2019-04-17 08:00:00 7.7 2 Sudoeste 6 Nordeste 0 -- -- 89
2019-04-17 07:00:00 7.2 3 Oeste 6 Oeste 0 -- -- 89
2019-04-17 06:00:00 8.7 5 Este 15 Este 0 -- -- 86
2019-04-17 05:00:00 8.3 0 Calma 6 Noroeste 0 -- -- 84
2019-04-17 04:00:00 9.4 0 Calma 12 Este 0 -- -- 80
2019-04-17 03:00:00 10.5 7 Nordeste 15 Este 0 -- -- 77
2019-04-17 02:00:00 11.7 12 Nordeste 26 Este 0 -- -- 77
2019-04-17 01:00:00 12.3 16 Este 24 Este 0 -- -- 72
2019-04-17 00:00:00 11.6 4 Este 9 Este 0 -- -- 62
2019-04-16 23:00:00 13.1 4 Nordeste 8 Este 0 -- -- 55
2019-04-16 22:00:00 14.4 2 Norte 22 Sudeste 0 -- -- 48
2019-04-16 21:00:00 16 10 Sudeste 29 Sudeste 0 -- -- 47
2019-04-16 20:00:00 18.4 15 Sudeste 33 Este 0 -- -- 47
2019-04-16 19:00:00 20.3 14 Este 24 Este 0 -- -- 45
2019-04-16 18:00:00 20.8 12 Nordeste 28 Este 0 -- -- 44
2019-04-16 17:00:00 20.9 13 Este 19 Nordeste 0 -- -- 45
2019-04-16 16:00:00 20.3 8 Este 19 Este 0 -- -- 44
2019-04-16 15:00:00 19.8 12 Este 21 Nordeste 0 -- -- 46
2019-04-16 14:00:00 19.3 8 Nordeste 19 Norte 0 -- -- 51
2019-04-16 13:00:00 18.4 8 Sudoeste 22 Sudoeste 0 -- -- 53
2019-04-16 12:00:00 16.7 8 Este 20 Este 0 -- -- 58
2019-04-16 11:00:00 15.5 9 Nordeste 16 Este 0 -- -- 64
2019-04-16 10:00:00 13.3 6 Nordeste 13 Nordeste 0 -- -- 73
2019-04-16 09:00:00 11.4 6 Nordeste 12 Nordeste 0 -- -- 79
2019-04-16 08:00:00 9.1 3 Oeste 6 Oeste 0 -- -- 87
2019-04-16 07:00:00 9 4 Nordeste 9 Oeste 0 -- -- 86
2019-04-16 06:00:00 8.8 2 Oeste 6 Nordeste 0 -- -- 87
2019-04-16 05:00:00 8.8 4 Este 9 Sudoeste 0 -- -- 85
2019-04-16 04:00:00 8.2 5 Sudoeste 9 Sudoeste 0 -- -- 85
2019-04-16 03:00:00 8.4 5 Noroeste 9 Oeste 0 -- -- 83
2019-04-16 02:00:00 9.9 3 Norte 13 Nordeste 0 -- -- 75
2019-04-16 01:00:00 10.4 3 Este 21 Nordeste 1 -- -- 81
2019-04-16 00:00:00 -- 11 Este 35 Este 0 -- -- --
2019-04-15 23:00:00 13.4 19 Este 38 Este 0 -- -- 58
2019-04-15 22:00:00 13.7 6 Nordeste 41 Este 0 -- -- 56
2019-04-15 21:00:00 14.5 18 Este 42 Este 0 -- -- 54
2019-04-15 20:00:00 15.7 22 Este 48 Este 0 -- -- 53
2019-04-15 19:00:00 16.6 27 Este 44 Sudeste 0 -- -- 52
2019-04-15 18:00:00 17.4 28 Este 49 Este 0 -- -- 52
2019-04-15 17:00:00 18.3 29 Este 47 Este 0 -- -- 51
2019-04-15 16:00:00 18.2 28 Este 47 Este 0 -- -- 51
2019-04-15 15:00:00 18.5 25 Este 48 Este 0 -- -- 52
2019-04-15 14:00:00 18.4 24 Este 44 Este 0 -- -- 55
2019-04-15 13:00:00 18.2 28 Este 40 Este 0 -- -- 54
2019-04-15 12:00:00 17.8 26 Este 37 Este 0 -- -- 54
2019-04-15 11:00:00 17 13 Este 33 Sudeste 0 -- -- 53
2019-04-15 10:00:00 14.8 14 Este 26 Este 0 -- -- 61
2019-04-15 09:00:00 12.4 6 Nordeste 17 Nordeste 0 -- -- 76
2019-04-15 08:00:00 10.5 4 Nordeste 15 Sudeste 0 -- -- 86
2019-04-15 07:00:00 10.7 2 Sur 22 Nordeste 0 -- -- 87
2019-04-15 06:00:00 10.8 12 Nordeste 21 Nordeste 0 -- -- 88
2019-04-15 05:00:00 11.2 12 Nordeste 24 Este 0 -- -- 86
2019-04-15 04:00:00 12.4 11 Nordeste 21 Nordeste 0 -- -- 80
2019-04-15 03:00:00 13.6 7 Nordeste 13 Oeste 0 -- -- 75
2019-04-15 02:00:00 14.9 10 Sudoeste 18 Sudoeste 0 -- -- 69
2019-04-15 01:00:00 17 5 Oeste 15 Oeste 0 -- -- 61
2019-04-15 00:00:00 18.3 6 Sur 28 Oeste 0 -- -- 57
2019-04-14 23:00:00 19.7 18 Noroeste 35 Oeste 0 -- -- 53
2019-04-14 22:00:00 20 15 Oeste 27 Oeste 0 -- -- 53
2019-04-14 21:00:00 21.6 20 Oeste 45 Oeste 0 -- -- 48
2019-04-14 20:00:00 23.4 26 Oeste 49 Oeste 0 -- -- 43
2019-04-14 19:00:00 24.5 31 Oeste 58 Oeste 0 -- -- 40
2019-04-14 18:00:00 25.1 36 Oeste 55 Oeste 0 -- -- 37
2019-04-14 17:00:00 25.5 28 Oeste 57 Oeste 0 -- -- 36
2019-04-14 16:00:00 25.1 32 Oeste 49 Oeste 0 -- -- 36
2019-04-14 15:00:00 24.9 31 Oeste 47 Oeste 0 -- -- 37
2019-04-14 14:00:00 23.7 28 Oeste 50 Oeste 0 -- -- 38
2019-04-14 13:00:00 22.9 26 Oeste 39 Oeste 0 -- -- 38
2019-04-14 12:00:00 19.4 9 Nordeste 16 Nordeste 0 -- -- 38
2019-04-14 11:00:00 16.5 10 Este 18 Nordeste 0 -- -- 40
2019-04-14 10:00:00 12.7 8 Nordeste 15 Nordeste 0 -- -- 46
2019-04-14 09:00:00 10.8 0 Calma 12 Oeste 0 -- -- 48
2019-04-14 08:00:00 8.1 8 Oeste 14 Oeste 0 -- -- 49
2019-04-14 07:00:00 7.5 7 Oeste 10 Oeste 0 -- -- 48
2019-04-14 06:00:00 7.3 6 Oeste 14 Oeste 0 -- -- 48
2019-04-14 05:00:00 8.2 6 Oeste 14 Oeste 0 -- -- 45
2019-04-14 04:00:00 9.2 11 Oeste 20 Sudoeste 0 -- -- 41
2019-04-14 03:00:00 9.8 7 Oeste 11 Oeste 0 -- -- 39
2019-04-14 02:00:00 9.4 5 Oeste 11 Noroeste 0 -- -- 37
2019-04-14 01:00:00 10.2 4 Oeste 11 Oeste 0 -- -- 38
2019-04-14 00:00:00 13.2 8 Oeste 14 Oeste 0 -- -- 30
2019-04-13 23:00:00 15.6 12 Oeste 19 Oeste 0 -- -- 28
2019-04-13 22:00:00 16 13 Oeste 23 Oeste 0 -- -- 28
2019-04-13 21:00:00 18 12 Oeste 20 Sudoeste 0 -- -- 25
2019-04-13 20:00:00 21.9 14 Oeste 28 Oeste 0 -- -- 16
2019-04-13 19:00:00 23 21 Oeste 31 Oeste 0 -- -- 13
2019-04-13 18:00:00 23.6 15 Oeste 32 Sudoeste 0 -- -- 17
2019-04-13 17:00:00 23.4 9 Noroeste 19 Oeste 0 -- -- 23
2019-04-13 16:00:00 22.3 12 Oeste 28 Sudoeste 0 -- -- 23
2019-04-13 15:00:00 21.1 13 Sudoeste 29 Sudoeste 0 -- -- 25
2019-04-13 14:00:00 19.7 10 Sur 26 Sur 0 -- -- 33
2019-04-13 13:00:00 17.2 9 Sur 21 Sur 0 -- -- 41
2019-04-13 12:00:00 15.4 6 Sudoeste 20 Sur 0 -- -- 47
2019-04-13 11:00:00 12.2 6 Oeste 17 Oeste 0 -- -- 54
2019-04-13 10:00:00 9.6 5 Este 12 Sudoeste 0 -- -- 67
2019-04-13 09:00:00 6.8 8 Sudoeste 12 Sudoeste 0 -- -- 76
2019-04-13 08:00:00 3.2 4 Oeste 8 Sudoeste 0 -- -- 87
2019-04-13 07:00:00 3.2 8 Oeste 12 Oeste 0 -- -- 86
2019-04-13 06:00:00 4.1 8 Oeste 15 Oeste 0 -- -- 84
2019-04-13 05:00:00 4.9 8 Oeste 15 Oeste 0 -- -- 82
2019-04-13 04:00:00 6.2 10 Oeste 14 Oeste 0 -- -- 78
2019-04-13 03:00:00 7.1 7 Oeste 15 Sudoeste 0 -- -- 74
2019-04-13 02:00:00 8.7 9 Sudoeste 15 Sudoeste 0 -- -- 68
2019-04-13 01:00:00 9.7 10 Oeste 14 Oeste 0 -- -- 63
2019-04-13 00:00:00 10.8 10 Sudoeste 16 Oeste 0 -- -- 56
2019-04-12 23:00:00 11.9 6 Oeste 11 Sudoeste 0 -- -- 51
2019-04-12 22:00:00 14.3 10 Sudoeste 18 Oeste 0 -- -- 42
2019-04-12 21:00:00 16.9 14 Sudoeste 26 Sudoeste 0 -- -- 37
2019-04-12 20:00:00 19.5 16 Oeste 28 Oeste 0 -- -- 30
2019-04-12 19:00:00 21.4 15 Oeste 23 Oeste 0 -- -- 27
2019-04-12 18:00:00 21.5 13 Oeste 27 Oeste 0 -- -- 25
2019-04-12 17:00:00 21.4 15 Oeste 25 Oeste 0 -- -- 23
2019-04-12 16:00:00 21 13 Oeste 29 Oeste 0 -- -- 22
2019-04-12 15:00:00 20.2 7 Noroeste 25 Oeste 0 -- -- 34
2019-04-12 14:00:00 18.7 8 Noroeste 24 Noroeste 0 -- -- 39
2019-04-12 13:00:00 17.4 10 Oeste 20 Noroeste 0 -- -- 43
2019-04-12 12:00:00 15.4 7 Oeste 23 Oeste 0 -- -- 54
2019-04-12 11:00:00 12.8 16 Oeste 26 Oeste 0 -- -- 61
2019-04-12 10:00:00 10.4 11 Oeste 20 Noroeste 0 -- -- 69
2019-04-12 09:00:00 7.2 4 Sudoeste 12 Oeste 0 -- -- 81
2019-04-12 08:00:00 4.9 7 Oeste 14 Sudoeste 0 -- -- 87
2019-04-12 07:00:00 5.3 10 Oeste 21 Sudoeste 0 -- -- 85
2019-04-12 06:00:00 6 12 Sudoeste 17 Sudoeste 0 -- -- 82
2019-04-12 05:00:00 7 10 Oeste 19 Sudoeste 0 -- -- 77
2019-04-12 04:00:00 8.8 6 Sudoeste 23 Oeste 0 -- -- 70
2019-04-12 03:00:00 9 6 Oeste 26 Oeste 0 -- -- 68
2019-04-12 02:00:00 9.8 16 Noroeste 45 Noroeste 0 -- -- 64
2019-04-12 01:00:00 10.5 24 Oeste 47 Noroeste 0 -- -- 63
2019-04-12 00:00:00 11.4 31 Oeste 48 Oeste 0 -- -- 61
2019-04-11 23:00:00 12.2 29 Oeste 45 Oeste 0 -- -- 56
2019-04-11 22:00:00 13.3 29 Oeste 44 Noroeste 0 -- -- 52
2019-04-11 21:00:00 14.8 31 Oeste 42 Oeste 0 -- -- 49
2019-04-11 20:00:00 16.7 29 Oeste 49 Oeste 0 -- -- 43
2019-04-11 19:00:00 18.1 34 Oeste 55 Oeste 0 -- -- 38
2019-04-11 18:00:00 18.9 32 Oeste 50 Oeste 0 -- -- 40
2019-04-11 17:00:00 19.6 27 Oeste 45 Oeste 0 -- -- 39
2019-04-11 16:00:00 19.7 24 Oeste 40 Oeste 0 -- -- 36
2019-04-11 15:00:00 19.1 15 Oeste 33 Oeste 0 -- -- 34
2019-04-11 14:00:00 18 18 Oeste 30 Oeste 0 -- -- 34
2019-04-11 13:00:00 16.8 14 Oeste 30 Oeste 0 -- -- 36
2019-04-11 12:00:00 15.3 16 Oeste 35 Oeste 0 -- -- 41
2019-04-11 11:00:00 13.6 24 Oeste 39 Oeste 0 -- -- 51
2019-04-11 10:00:00 11.8 27 Oeste 40 Oeste 0 -- -- 57
2019-04-11 09:00:00 10.1 18 Noroeste 32 Noroeste 0 -- -- 65
2019-04-11 08:00:00 7.9 9 Oeste 20 Oeste 0 -- -- 74
2019-04-11 07:00:00 8.1 9 Noroeste 24 Noroeste 0 -- -- 72
2019-04-11 06:00:00 8.9 21 Oeste 38 Noroeste 0 -- -- 70
2019-04-11 05:00:00 9.2 15 Noroeste 30 Oeste 0 -- -- 68
2019-04-11 04:00:00 9 18 Noroeste 32 Oeste 0 -- -- 69
2019-04-11 03:00:00 8.9 15 Oeste 33 Oeste 0 -- -- 70
2019-04-11 02:00:00 9.9 19 Noroeste 33 Oeste 0 -- -- 65
2019-04-11 01:00:00 10.6 21 Oeste 33 Oeste 0 -- -- 62
2019-04-11 00:00:00 11.2 5 Norte 29 Noroeste 0 -- -- 62
2019-04-10 23:00:00 12.8 18 Noroeste 32 Oeste 0 -- -- 55
2019-04-10 22:00:00 12.5 0 Calma 13 Oeste 0 -- -- 59
2019-04-10 21:00:00 14.4 8 Oeste 25 Oeste 0 -- -- 52
2019-04-10 20:00:00 15.5 15 Noroeste 27 Noroeste 0 -- -- 43
2019-04-10 19:00:00 16.7 9 Noroeste 31 Noroeste 0 -- -- 45
2019-04-10 18:00:00 18.1 14 Oeste 22 Oeste 0 -- -- 43
2019-04-10 17:00:00 18.6 6 Este 31 Noroeste 0 -- -- 36
2019-04-10 16:00:00 19.4 11 Oeste 27 Sudoeste 0 -- -- 37
2019-04-10 15:00:00 18.3 15 Sudoeste 26 Sudoeste 0 -- -- 42
2019-04-10 14:00:00 16.9 16 Oeste 30 Oeste 0 -- -- 48
2019-04-10 13:00:00 15.7 13 Oeste 28 Oeste 0 -- -- 54
2019-04-10 12:00:00 13.9 15 Oeste 31 Oeste 0 -- -- 59
2019-04-10 11:00:00 13 18 Noroeste 30 Oeste 0 -- -- 63
2019-04-10 10:00:00 9.9 11 Oeste 19 Oeste 0 -- -- 73
2019-04-10 09:00:00 7.1 8 Sudoeste 15 Sudoeste 0 -- -- 85
2019-04-10 08:00:00 5.7 11 Oeste 16 Sudoeste 0 -- -- 89
2019-04-10 07:00:00 5.3 6 Oeste 11 Oeste 0 -- -- 91
2019-04-10 06:00:00 6.1 2 Oeste 8 Sudoeste 0 -- -- 89
2019-04-10 05:00:00 7.6 4 Oeste 15 Oeste 0 -- -- 84
2019-04-10 04:00:00 9.5 13 Oeste 30 Oeste 0 -- -- 77
2019-04-10 03:00:00 9.9 19 Oeste 32 Oeste 0 -- -- 76
2019-04-10 02:00:00 9.7 13 Oeste 21 Oeste 0 -- -- 78
2019-04-10 01:00:00 10.5 7 Sudoeste 27 Oeste 0 -- -- 74
2019-04-10 00:00:00 11.9 13 Oeste 22 Oeste 0 -- -- 65
2019-04-09 23:00:00 11.6 9 Sudoeste 27 Sudoeste 0 -- -- 66
2019-04-09 22:00:00 12.8 20 Oeste 39 Oeste 0 -- -- 62
2019-04-09 21:00:00 14 29 Oeste 45 Oeste 0 -- -- 55
2019-04-09 20:00:00 15.8 21 Oeste 34 Oeste 0 -- -- 52
2019-04-09 19:00:00 16.3 9 Oeste 36 Oeste 0 -- -- 48
2019-04-09 18:00:00 18.3 18 Oeste 30 Noroeste 0 -- -- 40
2019-04-09 17:00:00 18.7 19 Oeste 33 Oeste 0 -- -- 37
2019-04-09 16:00:00 18.5 22 Oeste 41 Sudoeste 0 -- -- 39
2019-04-09 15:00:00 18 23 Oeste 38 Oeste 0 -- -- 37
2019-04-09 14:00:00 17.2 22 Oeste 36 Oeste 0 -- -- 43
2019-04-09 13:00:00 16.2 26 Oeste 43 Oeste 0 -- -- 46
2019-04-09 12:00:00 15.2 26 Oeste 41 Oeste 0 -- -- 52
2019-04-09 11:00:00 14.1 27 Oeste 45 Oeste 0 -- -- 62
2019-04-09 10:00:00 12.6 21 Oeste 29 Oeste 0 -- -- 70
2019-04-09 09:00:00 9.3 13 Sudoeste 17 Sudoeste 0 -- -- 85
2019-04-09 08:00:00 8.6 9 Sudoeste 14 Sudoeste 0 -- -- 88
2019-04-09 07:00:00 9.5 11 Oeste 15 Oeste 0 -- -- 86
2019-04-09 06:00:00 9.5 9 Oeste 24 Oeste 2.4 -- -- 87
2019-04-09 05:00:00 10.7 18 Oeste 29 Oeste 1 -- -- 77
2019-04-09 04:00:00 11.4 9 Oeste 17 Noroeste 0 -- -- 82
2019-04-09 03:00:00 11.5 12 Noroeste 20 Oeste 0 -- -- 81
2019-04-09 02:00:00 11.2 12 Sudoeste 27 Sudoeste 0 -- -- 80
2019-04-09 01:00:00 10.7 3 Oeste 18 Oeste 0 -- -- 85
2019-04-09 00:00:00 11 7 Oeste 14 Sudoeste 0 -- -- 82
2019-04-08 23:00:00 11.1 2 Sudoeste 13 Oeste 0 -- -- 86
2019-04-08 22:00:00 11.5 6 Oeste 11 Sudoeste 0 -- -- 85
2019-04-08 21:00:00 11.5 7 Oeste 17 Noroeste 0.2 -- -- 87
2019-04-08 20:00:00 13.2 18 Noroeste 37 Oeste 2.6 -- -- 75
2019-04-08 19:00:00 18.1 8 Sudoeste 14 Sudoeste 0 -- -- 52
2019-04-08 18:00:00 18.3 5 Sudeste 11 Noroeste 0 -- -- 52
2019-04-08 17:00:00 18.5 7 Noroeste 19 Oeste 0 -- -- 53
2019-04-08 16:00:00 18.9 10 Oeste 21 Noroeste 0 -- -- 53
2019-04-08 15:00:00 18.6 10 Noroeste 22 Noroeste 0 -- -- 55
2019-04-08 14:00:00 16.8 12 Sudoeste 24 Oeste 0 -- -- 58
2019-04-08 13:00:00 14.9 8 Noroeste 21 Noroeste 0 -- -- 66
2019-04-08 12:00:00 13.4 7 Oeste 15 Oeste 0 -- -- 71
2019-04-08 11:00:00 12.1 7 Sudoeste 12 Sudoeste 0 -- -- 75
2019-04-08 10:00:00 10 6 Sudoeste 9 Sudoeste 0 -- -- 82
2019-04-08 09:00:00 7.7 4 Oeste 10 Sudoeste 0 -- -- 87
2019-04-08 08:00:00 6.8 2 Sur 5 Sudoeste 0 -- -- 89
2019-04-08 07:00:00 6.3 2 Nordeste 5 Nordeste 0 -- -- 88
2019-04-08 06:00:00 6.2 3 Nordeste 6 Nordeste 0 -- -- 85
2019-04-08 05:00:00 7 4 Oeste 11 Oeste 0 -- -- 78
2019-04-08 04:00:00 6.1 5 Oeste 9 Oeste 0 -- -- 79
2019-04-08 03:00:00 7 3 Norte 16 Sudoeste 0 -- -- 75
2019-04-08 02:00:00 8.4 13 Oeste 18 Sudoeste 0 -- -- 70
2019-04-08 01:00:00 9 11 Oeste 15 Oeste 0 -- -- 68
2019-04-08 00:00:00 8.8 8 Oeste 19 Sudoeste 0 -- -- 68
2019-04-07 23:00:00 9.4 11 Oeste 15 Oeste 0 -- -- 66
2019-04-07 22:00:00 9.9 9 Oeste 13 Oeste 0 -- -- 63
2019-04-07 21:00:00 12.1 9 Oeste 18 Oeste 0 -- -- 53
2019-04-07 20:00:00 15.5 15 Oeste 32 Oeste 0 -- -- 42
2019-04-07 19:00:00 16.3 26 Oeste 39 Noroeste 0 -- -- 40
2019-04-07 18:00:00 16.9 23 Oeste 37 Oeste 0 -- -- 40
2019-04-07 17:00:00 16.8 24 Oeste 39 Oeste 0 -- -- 40
2019-04-07 16:00:00 16.2 26 Oeste 43 Oeste 0 -- -- 42
2019-04-07 15:00:00 15.5 25 Oeste 49 Oeste 0 -- -- 46
2019-04-07 14:00:00 15 27 Oeste 45 Oeste 0 -- -- 47
2019-04-07 13:00:00 13.8 26 Oeste 49 Oeste 0 -- -- 54
2019-04-07 12:00:00 13 30 Oeste 50 Oeste 0 -- -- 53
2019-04-07 11:00:00 11.9 30 Oeste 49 Oeste 0 -- -- 57
2019-04-07 10:00:00 10.3 23 Oeste 36 Oeste 0 -- -- 71
2019-04-07 09:00:00 8.8 9 Noroeste 19 Oeste 0 -- -- 78
2019-04-07 08:00:00 5.9 7 Oeste 13 Oeste 0 -- -- 90
2019-04-07 07:00:00 6.1 9 Oeste 14 Oeste 0 -- -- 90
2019-04-07 06:00:00 6.8 5 Oeste 14 Oeste 0 -- -- 89
2019-04-07 05:00:00 6.8 10 Oeste 14 Sudoeste 0 -- -- 91
2019-04-07 04:00:00 6.7 2 Noroeste 6 Noroeste 0 -- -- 92
2019-04-07 03:00:00 7 3 Nordeste 8 Nordeste 0 -- -- 91
2019-04-07 02:00:00 7.6 0 Calma 5 Noroeste 0 -- -- 90
2019-04-07 01:00:00 7.7 2 Este 6 Oeste 0 -- -- 86
2019-04-07 00:00:00 7.7 7 Oeste 10 Sudoeste 0 -- -- 85
2019-04-06 23:00:00 8.4 6 Oeste 13 Sudoeste 0 -- -- 80
2019-04-06 22:00:00 9.5 8 Sudoeste 30 Sudeste 0 -- -- 73
2019-04-06 21:00:00 9.6 14 Sur 48 Sudoeste 0 -- -- 72
2019-04-06 20:00:00 13.1 10 Oeste 39 Sudoeste 0 -- -- 52
2019-04-06 19:00:00 14.4 13 Sudoeste 23 Sudoeste 0 -- -- 44
2019-04-06 18:00:00 14.7 13 Oeste 25 Sudoeste 0 -- -- 42
2019-04-06 17:00:00 14.5 15 Sudoeste 32 Sudoeste 0 -- -- 46
2019-04-06 16:00:00 14.3 7 Este 40 Sudoeste 0 -- -- 47
2019-04-06 15:00:00 14.1 9 Noroeste 19 Oeste 0 -- -- 51
2019-04-06 14:00:00 12.8 7 Norte 30 Sudoeste 0 -- -- 54
2019-04-06 13:00:00 12.4 17 Sudoeste 36 Sudoeste 0 -- -- 51
2019-04-06 12:00:00 11.7 16 Sudoeste 33 Oeste 0 -- -- 60
2019-04-06 11:00:00 9.7 23 Sudoeste 33 Sudoeste 0 -- -- 68
2019-04-06 10:00:00 8.1 15 Sudoeste 24 Oeste 0 -- -- 76
2019-04-06 09:00:00 7.3 13 Sudoeste 19 Sudoeste 0 -- -- 83
2019-04-06 08:00:00 6.8 14 Sudoeste 17 Sudoeste 0 -- -- 85
2019-04-06 07:00:00 7 12 Sudoeste 18 Sudoeste 0 -- -- 86
2019-04-06 06:00:00 7.1 11 Sudoeste 21 Sudoeste 0 -- -- 86
2019-04-06 05:00:00 7.2 10 Sudoeste 24 Oeste 0 -- -- 86
2019-04-06 04:00:00 7.1 22 Sudoeste 31 Sudoeste 0 -- -- 84
2019-04-06 03:00:00 6.9 16 Oeste 30 Oeste 0 -- -- 82
2019-04-06 02:00:00 7 10 Sudoeste 30 Oeste 0.2 -- -- 88
2019-04-06 01:00:00 7 21 Oeste 49 Sudoeste 0.6 -- -- 88
2019-04-06 00:00:00 9.2 3 Sur 8 Oeste 0.2 -- -- 95
2019-04-05 23:00:00 9.2 0 Calma 8 Oeste 0 -- -- 94
2019-04-05 22:00:00 9.2 3 Este 9 Nordeste 0 -- -- 94
2019-04-05 21:00:00 9.7 2 Sudeste 9 Este 0 -- -- 93
2019-04-05 20:00:00 9.8 4 Nordeste 23 Noroeste 0.2 -- -- 93
2019-04-05 19:00:00 10 12 Noroeste 20 Noroeste 7 -- -- 91
2019-04-05 18:00:00 11.6 15 Oeste 23 Nordeste 1.2 -- -- 80
2019-04-05 17:00:00 15.2 14 Este 24 Este 0 -- -- 52
2019-04-05 16:00:00 16.1 14 Este 29 Nordeste 0.2 -- -- 48
2019-04-05 15:00:00 16.1 14 Nordeste 27 Este 0 -- -- 51
2019-04-05 14:00:00 14.9 16 Este 23 Nordeste 0 -- -- 60
2019-04-05 13:00:00 12.6 7 Este 16 Este 0 -- -- 70
2019-04-05 12:00:00 9.9 8 Este 15 Nordeste 0 -- -- 75
2019-04-05 11:00:00 8 12 Nordeste 26 Este 0 -- -- 77
2019-04-05 10:00:00 6.2 20 Este 31 Este 0.4 -- -- 88
2019-04-05 09:00:00 6.6 3 Oeste 5 Sudoeste 0.2 -- -- 83
2019-04-05 08:00:00 6.6 0 Calma 7 Oeste 0 -- -- 75
2019-04-05 07:00:00 7.3 3 Norte 15 Este 0 -- -- 61
2019-04-05 06:00:00 6.7 9 Nordeste 16 Este 0 -- -- 63
2019-04-05 05:00:00 6 10 Nordeste 25 Este 0 -- -- 66
2019-04-05 04:00:00 6.6 13 Este 22 Este 0 -- -- 66
2019-04-05 03:00:00 7 10 Nordeste 17 Nordeste 0 -- -- 66
2019-04-05 02:00:00 7.3 7 Nordeste 13 Este 0 -- -- 63
2019-04-05 01:00:00 7.1 3 Nordeste 11 Nordeste 0 -- -- 60
2019-04-05 00:00:00 7.3 3 Norte 9 Este 0 -- -- 53
2019-04-04 23:00:00 7.3 4 Nordeste 9 Este 0 -- -- 48
2019-04-04 22:00:00 8.2 0 Calma 8 Norte 0 -- -- 45
2019-04-04 21:00:00 10.5 0 Calma 5 Nordeste 0 -- -- 39
2019-04-04 20:00:00 13.3 2 Noroeste 13 Oeste 0 -- -- 32
2019-04-04 19:00:00 15 10 Oeste 23 Oeste 0 -- -- 27
2019-04-04 18:00:00 15 17 Sudoeste 36 Oeste 0 -- -- 28
2019-04-04 17:00:00 15.1 22 Sudoeste 38 Oeste 0 -- -- 27
2019-04-04 16:00:00 14.8 17 Oeste 37 Oeste 0 -- -- 31
2019-04-04 15:00:00 13.9 22 Oeste 46 Oeste 0 -- -- 30
2019-04-04 14:00:00 13.4 21 Oeste 47 Oeste 0 -- -- 33
2019-04-04 13:00:00 11.9 27 Oeste 50 Oeste 0 -- -- 40
2019-04-04 12:00:00 10.2 29 Oeste 51 Oeste 0 -- -- 45
2019-04-04 11:00:00 9.4 30 Oeste 46 Oeste 0 -- -- 46
2019-04-04 10:00:00 8 31 Oeste 49 Oeste 0 -- -- 51
2019-04-04 09:00:00 6.6 24 Oeste 35 Oeste 0 -- -- 54
2019-04-04 08:00:00 5.2 18 Oeste 39 Oeste 0 -- -- 60
2019-04-04 07:00:00 4.9 17 Oeste 29 Oeste 0 -- -- 62
2019-04-04 06:00:00 4.8 21 Oeste 35 Oeste 0 -- -- 61
2019-04-04 05:00:00 5.2 15 Oeste 35 Oeste 0 -- -- 59
2019-04-04 04:00:00 5.3 12 Oeste 26 Oeste 0 -- -- 57
2019-04-04 03:00:00 4.7 5 Sudoeste 23 Oeste 0 -- -- 62
2019-04-04 02:00:00 5.9 14 Oeste 31 Oeste 0 -- -- 56
2019-04-04 01:00:00 6.5 15 Oeste 23 Sudoeste 0 -- -- 58
2019-04-04 00:00:00 6.7 15 Sudoeste 32 Sudoeste 0 -- -- 61
2019-04-03 23:00:00 8.6 21 Oeste 40 Oeste 0 -- -- 50
2019-04-03 22:00:00 9.4 16 Oeste 49 Oeste 0 -- -- 55
2019-04-03 21:00:00 9.6 21 Oeste 53 Oeste 0 -- -- 50
2019-04-03 20:00:00 10.6 25 Oeste 44 Oeste 0 -- -- 57
2019-04-03 19:00:00 10.8 25 Sudoeste 38 Sudoeste 0 -- -- 65
2019-04-03 18:00:00 11.3 17 Sudoeste 27 Sudoeste 0 -- -- 53
2019-04-03 17:00:00 11 15 Oeste 32 Oeste 0 -- -- 58
2019-04-03 16:00:00 10.9 17 Oeste 32 Oeste 0 -- -- 61
2019-04-03 15:00:00 12.3 17 Oeste 30 Oeste 0 -- -- 59
2019-04-03 14:00:00 13.6 16 Oeste 27 Oeste 0 -- -- 56
2019-04-03 13:00:00 13.2 11 Sudoeste 22 Sur 0 -- -- 66
2019-04-03 12:00:00 13.6 9 Oeste 19 Oeste 0 -- -- 65
2019-04-03 11:00:00 12.2 8 Sur 17 Sudoeste 0 -- -- 71
2019-04-03 10:00:00 10.3 6 Sur 13 Sudoeste 0 -- -- 79
2019-04-03 09:00:00 8.8 9 Sudoeste 14 Sudoeste 0 -- -- 83
2019-04-03 08:00:00 8.3 8 Sudoeste 11 Sudoeste 0 -- -- 85
2019-04-03 07:00:00 8.7 6 Sudoeste 17 Sudoeste 0 -- -- 84
2019-04-03 06:00:00 9.5 9 Sudoeste 19 Sudoeste 0 -- -- 82
2019-04-03 05:00:00 10.7 10 Sudoeste 17 Sudoeste 0 -- -- 80
2019-04-03 04:00:00 11 4 Oeste 9 Sudoeste 0 -- -- 79
2019-04-03 03:00:00 11.9 6 Sudoeste 14 Oeste 0 -- -- 74
2019-04-03 02:00:00 12.3 9 Sudoeste 15 Sur 0 -- -- 73
2019-04-03 01:00:00 13.3 9 Sudoeste 21 Sudoeste 0 -- -- 66
2019-04-03 00:00:00 13.3 14 Sudoeste 23 Sur 0 -- -- 65
2019-04-02 23:00:00 14.3 16 Sudoeste 28 Sudoeste 0 -- -- 60
2019-04-02 22:00:00 15.9 24 Oeste 34 Sudoeste 0 -- -- 53
2019-04-02 21:00:00 16.2 13 Sudoeste 30 Sudoeste 0 -- -- 53
2019-04-02 20:00:00 18.6 15 Sudoeste 30 Sudoeste 0 -- -- 43
2019-04-02 19:00:00 20.3 15 Oeste 32 Oeste 0 -- -- 38
2019-04-02 18:00:00 20.7 19 Oeste 30 Oeste 0 -- -- 37
2019-04-02 17:00:00 20.2 11 Sudoeste 22 Oeste 0 -- -- 45
2019-04-02 16:00:00 19.2 12 Sudoeste 28 Oeste 0 -- -- 52
2019-04-02 15:00:00 17.9 15 Sudoeste 26 Sudoeste 0 -- -- 56
2019-04-02 14:00:00 18.2 7 Sur 19 Sur 0 -- -- 60
2019-04-02 13:00:00 17.8 7 Sudoeste 18 Noroeste 0 -- -- 63
2019-04-02 12:00:00 16.3 12 Oeste 18 Oeste 0 -- -- 66
2019-04-02 11:00:00 14.2 4 Este 8 Este 0 -- -- 74
2019-04-02 10:00:00 13 4 Sudeste 8 Sur 0 -- -- 75
2019-04-02 09:00:00 9.9 4 Oeste 11 Oeste 0 -- -- 85
2019-04-02 08:00:00 9.5 6 Oeste 8 Oeste 0 -- -- 85
2019-04-02 07:00:00 9.3 4 Oeste 6 Sudoeste 0 -- -- 85
2019-04-02 06:00:00 9.3 0 Calma 5 Sudoeste 0 -- -- 82
2019-04-02 05:00:00 9.3 2 Oeste 6 Noroeste 0 -- -- 81
2019-04-02 04:00:00 8.9 4 Noroeste 8 Noroeste 0 -- -- 81
2019-04-02 03:00:00 8.7 2 Sudoeste 9 Oeste 0 -- -- 81
2019-04-02 02:00:00 9 6 Oeste 10 Oeste 0 -- -- 81
2019-04-02 01:00:00 10 4 Oeste 10 Oeste 0 -- -- 78
2019-04-02 00:00:00 11.1 6 Oeste 9 Oeste 0 -- -- 73
2019-04-01 23:00:00 12 4 Oeste 7 Noroeste 0 -- -- 68
2019-04-01 22:00:00 12.9 0 Calma 5 Oeste 0 -- -- 65
2019-04-01 21:00:00 14.4 0 Calma 4 Noroeste 0 -- -- 61
2019-04-01 20:00:00 15.8 0 Calma 10 Sudoeste 0 -- -- 53
2019-04-01 19:00:00 15.9 6 Sudoeste 15 Sudoeste 0 -- -- 52
2019-04-01 18:00:00 15.6 8 Sudoeste 15 Sudoeste 0 -- -- 53
2019-04-01 17:00:00 15.2 9 Sudoeste 15 Sur 0 -- -- 58
2019-04-01 16:00:00 15.4 9 Sudoeste 18 Sur 0 -- -- 58
2019-04-01 15:00:00 14.7 9 Sudoeste 19 Sudoeste 0 -- -- 61
2019-04-01 14:00:00 14.1 6 Sur 14 Sudoeste 0 -- -- 66
2019-04-01 13:00:00 13.4 4 Norte 12 Oeste 0 -- -- 66
2019-04-01 12:00:00 11.5 9 Oeste 13 Oeste 0 -- -- 72
2019-04-01 11:00:00 10.9 5 Oeste 12 Oeste 0 -- -- 84
2019-04-01 10:00:00 10.5 6 Oeste 13 Oeste 0.2 -- -- 87
2019-04-01 09:00:00 9.7 3 Sudoeste 6 Oeste 0 -- -- 92
2019-04-01 08:00:00 9.2 2 Este 10 Oeste 0 -- -- 93
2019-04-01 07:00:00 9.2 5 Oeste 12 Oeste 0.2 -- -- 92
2019-04-01 06:00:00 9.4 6 Oeste 12 Oeste 0.2 -- -- 90
2019-04-01 05:00:00 9.6 8 Oeste 12 Oeste 0.2 -- -- 90
2019-04-01 04:00:00 10 5 Oeste 9 Sudoeste 0 -- -- 91
2019-04-01 03:00:00 10.3 5 Oeste 10 Sudoeste 0 -- -- 89
2019-04-01 02:00:00 10.6 8 Sudoeste 12 Sudoeste 0 -- -- 87
2019-04-01 01:00:00 10.8 6 Sudoeste 11 Sudoeste 0 -- -- 87
2019-04-01 00:00:00 11.3 5 Oeste 10 Sudoeste 0 -- -- 81
2019-03-31 23:00:00 11.9 6 Sudoeste 9 Sudoeste 0 -- -- 73
2019-03-31 22:00:00 12.1 0 Calma 3 Sur 0 -- -- 68
2019-03-31 21:00:00 12.7 2 Oeste 4 Norte 0 -- -- 65
2019-03-31 20:00:00 14 2 Norte 8 Oeste 0 -- -- 60
2019-03-31 19:00:00 14.3 4 Sudoeste 10 Sudoeste 0 -- -- 58
2019-03-31 18:00:00 14.5 3 Sudoeste 10 Sudoeste 0 -- -- 58
2019-03-31 17:00:00 14.1 5 Este 7 Este 0 -- -- 59
2019-03-31 16:00:00 13.5 5 Este 10 Este 0 -- -- 61
2019-03-31 15:00:00 13.1 8 Este 12 Este 0 -- -- 65
2019-03-31 14:00:00 12.6 3 Este 9 Este 0 -- -- 67
2019-03-31 13:00:00 11.4 5 Este 9 Nordeste 0 -- -- 72
2019-03-31 12:00:00 9.5 3 Este 8 Nordeste 0 -- -- 78
2019-03-31 11:00:00 7.5 5 Nordeste 9 Nordeste 0 -- -- 86
2019-03-31 10:00:00 5.7 6 Nordeste 9 Nordeste 0 -- -- 88
2019-03-31 09:00:00 3.9 2 Sudeste 4 Nordeste 0 -- -- 90
2019-03-31 08:00:00 2.6 0 Calma 5 Noroeste 0 -- -- 92
2019-03-31 07:00:00 3.1 2 Nordeste 9 Noroeste 0 -- -- 91
2019-03-31 06:00:00 3.8 4 Oeste 6 Noroeste 0 -- -- 91
2019-03-31 05:00:00 4.4 3 Norte 6 Oeste 0 -- -- 90
2019-03-31 03:00:00 6.2 2 Oeste 5 Noroeste 0 -- -- 86
2019-03-31 01:00:00 7.4 0 Calma 8 Nordeste 0 -- -- 82
2019-03-31 00:00:00 7.9 0 Calma 3 Oeste 0 -- -- 82
2019-03-30 23:00:00 9.2 2 Nordeste 8 Nordeste 0 -- -- 76
2019-03-30 22:00:00 10.8 5 Este 22 Sudeste 0 -- -- 72
2019-03-30 21:00:00 12 12 Sur 30 Sur 0 -- -- 67
2019-03-30 20:00:00 13.6 7 Sur 24 Sudeste 0 -- -- 59
2019-03-30 19:00:00 16.5 14 Sudeste 24 Este 0 -- -- 48
2019-03-30 18:00:00 18.6 12 Este 22 Este 0 -- -- 40
2019-03-30 17:00:00 18.9 12 Este 21 Este 0 -- -- 35
2019-03-30 16:00:00 18.8 13 Nordeste 23 Este 0 -- -- 31
2019-03-30 15:00:00 18.5 8 Este 26 Este 0 -- -- 38
2019-03-30 14:00:00 17.9 10 Este 24 Sudeste 0 -- -- 39
2019-03-30 13:00:00 16.6 12 Este 26 Este 0 -- -- 42
2019-03-30 12:00:00 15.1 9 Este 19 Este 0 -- -- 49
2019-03-30 11:00:00 13.1 11 Este 17 Nordeste 0 -- -- 57
2019-03-30 10:00:00 9.6 8 Este 14 Este 0 -- -- 68
2019-03-30 09:00:00 6.9 8 Nordeste 12 Nordeste 0 -- -- 75
2019-03-30 08:00:00 3.9 0 Calma 4 Oeste 0 -- -- 82
2019-03-30 07:00:00 1.6 0 Calma 5 Noroeste 0 -- -- 88
2019-03-30 06:00:00 1.8 0 Calma 7 Nordeste 0 -- -- 85
2019-03-30 05:00:00 3.2 0 Calma 3 Norte 0 -- -- 82
2019-03-30 04:00:00 4.2 0 Calma 8 Noroeste 0 -- -- 80
2019-03-30 03:00:00 4.8 2 Noroeste 5 Oeste 0 -- -- 76
2019-03-30 02:00:00 6.2 0 Calma 5 Noroeste 0 -- -- 72
2019-03-30 01:00:00 7.3 0 Calma 6 Noroeste 0 -- -- 71
2019-03-30 00:00:00 8 0 Calma 6 Nordeste 0 -- -- 66
2019-03-29 23:00:00 9.1 3 Oeste 12 Este 0 -- -- 57
2019-03-29 22:00:00 11.4 4 Sudeste 13 Sudeste 0 -- -- 48
2019-03-29 21:00:00 12.3 8 Sur 18 Sur 0 -- -- 45
2019-03-29 20:00:00 13.7 6 Sudeste 28 Sudeste 0 -- -- 42
2019-03-29 19:00:00 16 12 Sur 33 Sudeste 0 -- -- 39
2019-03-29 18:00:00 17.9 14 Sudeste 35 Este 0 -- -- 36
2019-03-29 17:00:00 18.4 18 Este 31 Este 0 -- -- 36
2019-03-29 16:00:00 18.9 13 Este 23 Este 0 -- -- 37
2019-03-29 15:00:00 19.1 15 Este 33 Este 0 -- -- 33
2019-03-29 14:00:00 18.9 17 Este 32 Este 0 -- -- 34
2019-03-29 13:00:00 18.5 12 Este 21 Este 0 -- -- 32
2019-03-29 12:00:00 16.9 8 Nordeste 21 Sudeste 0 -- -- 38
2019-03-29 11:00:00 14.1 7 Este 14 Este 0 -- -- 49
2019-03-29 10:00:00 10.8 4 Nordeste 11 Este 0 -- -- 58
2019-03-29 09:00:00 7.7 6 Nordeste 9 Nordeste 0 -- -- 69
2019-03-29 08:00:00 4.2 3 Este 6 Noroeste 0 -- -- 78
2019-03-29 07:00:00 2.5 0 Calma 8 Oeste 0 -- -- 81
2019-03-29 06:00:00 3.2 0 Calma 7 Este 0 -- -- 78
2019-03-29 05:00:00 4.6 0 Calma 5 Este 0 -- -- 74
2019-03-29 04:00:00 6 4 Nordeste 12 Nordeste 0 -- -- 69
2019-03-29 03:00:00 7.8 7 Este 14 Este 0 -- -- 62
2019-03-29 02:00:00 7 0 Calma 12 Este 0 -- -- 62
2019-03-29 01:00:00 8.1 4 Este 15 Este 0 -- -- 56
2019-03-29 00:00:00 8.9 8 Este 13 Este 0 -- -- 50
2019-03-28 23:00:00 9.2 0 Calma 10 Sudoeste 0 -- -- 50
2019-03-28 22:00:00 11.6 6 Oeste 14 Oeste 0 -- -- 44
2019-03-28 21:00:00 13.2 8 Sur 24 Sudeste 0 -- -- 40
2019-03-28 20:00:00 14.6 8 Sudeste 23 Este 0 -- -- 38
2019-03-28 19:00:00 18.2 6 Sur 11 Sudeste 0 -- -- 35
2019-03-28 18:00:00 19.6 6 Sur 15 Sudoeste 0 -- -- 28
2019-03-28 17:00:00 20 6 Sur 22 Sur 0 -- -- 28
2019-03-28 16:00:00 19.3 12 Sudoeste 24 Sudoeste 0 -- -- 32
2019-03-28 15:00:00 18.8 8 Sudoeste 30 Sur 0 -- -- 34
2019-03-28 14:00:00 17.3 13 Oeste 23 Sudoeste 0 -- -- 38
2019-03-28 13:00:00 16.3 7 Oeste 19 Sudoeste 0 -- -- 42
2019-03-28 12:00:00 14.5 9 Sudoeste 17 Sudeste 0 -- -- 46
2019-03-28 11:00:00 12.4 5 Oeste 12 Sudoeste 0 -- -- 51
2019-03-28 10:00:00 9.9 5 Este 10 Este 0 -- -- 60
2019-03-28 09:00:00 7.2 6 Nordeste 11 Oeste 0 -- -- 69
2019-03-28 08:00:00 3.5 8 Oeste 12 Oeste 0 -- -- 77
2019-03-28 07:00:00 1.8 8 Noroeste 13 Oeste 0 -- -- 82
2019-03-28 06:00:00 2.1 4 Oeste 8 Oeste 0 -- -- 83
2019-03-28 05:00:00 3.2 6 Oeste 9 Oeste 0 -- -- 81
2019-03-28 04:00:00 4.6 3 Norte 8 Oeste 0 -- -- 76
2019-03-28 03:00:00 6.3 0 Calma 6 Este 0 -- -- 72
2019-03-28 02:00:00 7.2 3 Nordeste 9 Nordeste 0 -- -- 67
2019-03-28 01:00:00 7.8 4 Nordeste 6 Nordeste 0 -- -- 64
2019-03-28 00:00:00 7.8 5 Noroeste 8 Oeste 0 -- -- 58
2019-03-27 23:00:00 9.7 5 Sudoeste 15 Oeste 0 -- -- 51
2019-03-27 22:00:00 11.4 6 Noroeste 9 Noroeste 0 -- -- 46
2019-03-27 21:00:00 12.3 3 Oeste 12 Oeste 0 -- -- 41
2019-03-27 20:00:00 14.8 9 Oeste 12 Oeste 0 -- -- 35
2019-03-27 19:00:00 18.4 8 Sur 14 Sudoeste 0 -- -- 29
2019-03-27 18:00:00 19.8 9 Sur 22 Sur 0 -- -- 28
2019-03-27 17:00:00 20.4 8 Sudoeste 17 Sur 0 -- -- 30
2019-03-27 16:00:00 20 9 Sur 18 Oeste 0 -- -- 33
2019-03-27 15:00:00 19.3 9 Oeste 24 Sur 0 -- -- 34
2019-03-27 14:00:00 17.6 11 Sudoeste 22 Sur 0 -- -- 38
2019-03-27 13:00:00 16.3 9 Sur 19 Sur 0 -- -- 42
2019-03-27 12:00:00 13.8 7 Sur 18 Sur 0 -- -- 48
2019-03-27 11:00:00 11.1 9 Sudoeste 17 Sudoeste 0 -- -- 57
2019-03-27 10:00:00 9.4 6 Nordeste 10 Este 0 -- -- 65
2019-03-27 09:00:00 6 6 Este 9 Este 0 -- -- 77
2019-03-27 08:00:00 2.5 3 Oeste 9 Sudoeste 0 -- -- 87
2019-03-27 07:00:00 0.5 4 Oeste 10 Oeste 0 -- -- 90
2019-03-27 06:00:00 1.3 5 Oeste 9 Oeste 0 -- -- 90
2019-03-27 05:00:00 2.4 6 Noroeste 9 Oeste 0 -- -- 89
2019-03-27 04:00:00 3.2 4 Oeste 9 Noroeste 0 -- -- 85
2019-03-27 03:00:00 4.5 4 Noroeste 6 Oeste 0 -- -- 84
2019-03-27 02:00:00 5.4 0 Calma 8 Oeste 0 -- -- 80
2019-03-27 01:00:00 6.4 0 Calma 6 Noroeste 0 -- -- 76
2019-03-27 00:00:00 7.9 0 Calma 5 Sudeste 0 -- -- 71
2019-03-26 23:00:00 8.1 2 Sur 6 Sur 0 -- -- 68
2019-03-26 22:00:00 10.5 8 Sudoeste 19 Sudeste 0 -- -- 62
2019-03-26 21:00:00 11.7 6 Oeste 28 Sudeste 0 -- -- 59
2019-03-26 20:00:00 13.9 17 Sudeste 35 Sudeste 0 -- -- 52
2019-03-26 19:00:00 18.8 11 Oeste 22 Sudoeste 0 -- -- 26
2019-03-26 18:00:00 21.1 8 Sudoeste 14 Sudoeste 0 -- -- 23
2019-03-26 17:00:00 21.7 5 Oeste 15 Noroeste 0 -- -- 20
2019-03-26 16:00:00 21.2 4 Este 24 Noroeste 0 -- -- 22
2019-03-26 15:00:00 19.9 16 Sudoeste 30 Sur 0 -- -- 28
2019-03-26 14:00:00 18.5 15 Sudoeste 30 Oeste 0 -- -- 30
2019-03-26 13:00:00 17.1 12 Oeste 25 Sudoeste 0 -- -- 35
2019-03-26 12:00:00 14.8 10 Oeste 22 Oeste 0 -- -- 46
2019-03-26 11:00:00 12.7 7 Noroeste 23 Oeste 0 -- -- 51
2019-03-26 10:00:00 10.2 16 Oeste 23 Oeste 0 -- -- 60
2019-03-26 09:00:00 7.7 5 Este 11 Oeste 0 -- -- 70
2019-03-26 08:00:00 3.5 9 Sudoeste 17 Sudoeste 0 -- -- 81
2019-03-26 07:00:00 2.6 10 Oeste 14 Oeste 0 -- -- 85
2019-03-26 06:00:00 2.7 5 Oeste 11 Oeste 0 -- -- 83
2019-03-26 05:00:00 3.5 4 Oeste 15 Sudoeste 0 -- -- 80
2019-03-26 04:00:00 4.5 10 Oeste 14 Sudoeste 0 -- -- 77
2019-03-26 03:00:00 5.9 12 Sudoeste 15 Sudoeste 0 -- -- 73
2019-03-26 02:00:00 6.3 12 Oeste 17 Sudoeste 0 -- -- 71
2019-03-26 01:00:00 7.3 10 Oeste 19 Sudoeste 0 -- -- 68
2019-03-26 00:00:00 8.5 13 Sudoeste 20 Sudoeste 0 -- -- 64
2019-03-25 23:00:00 9.6 11 Sudoeste 17 Sudoeste 0 -- -- 58
2019-03-25 22:00:00 9.9 9 Sudoeste 15 Oeste 0 -- -- 54
2019-03-25 21:00:00 11.7 8 Oeste 13 Oeste 0 -- -- 48
2019-03-25 20:00:00 13.8 8 Oeste 12 Oeste 0 -- -- 45
2019-03-25 19:00:00 17.6 12 Oeste 33 Oeste 0 -- -- 34
2019-03-25 18:00:00 20 22 Oeste 35 Oeste 0 -- -- 31
2019-03-25 17:00:00 21.2 20 Oeste 35 Sudoeste 0 -- -- 30
2019-03-25 16:00:00 21.9 18 Oeste 38 Sudoeste 0 -- -- 32
2019-03-25 15:00:00 21.9 15 Oeste 32 Noroeste 0 -- -- 34
2019-03-25 14:00:00 21.4 6 Oeste 21 Oeste 0 -- -- 37
2019-03-25 13:00:00 19.6 9 Oeste 23 Sudoeste 0 -- -- 42
2019-03-25 12:00:00 17.1 12 Oeste 20 Noroeste 0 -- -- 46
2019-03-25 11:00:00 15.1 10 Noroeste 28 Oeste 0 -- -- 51
2019-03-25 10:00:00 12.9 17 Oeste 26 Oeste 0 -- -- 58
2019-03-25 09:00:00 10.7 14 Oeste 25 Oeste 0 -- -- 61
2019-03-25 08:00:00 6.8 11 Sudoeste 15 Sudoeste 0 -- -- 72
2019-03-25 07:00:00 5.6 10 Oeste 14 Sudoeste 0 -- -- 76
2019-03-25 06:00:00 5.6 6 Oeste 12 Oeste 0 -- -- 74
2019-03-25 05:00:00 6.2 8 Oeste 18 Oeste 0 -- -- 69
2019-03-25 04:00:00 6 8 Oeste 12 Oeste 0 -- -- 68
2019-03-25 03:00:00 7.6 9 Oeste 14 Oeste 0 -- -- 63
2019-03-25 02:00:00 8.2 3 Oeste 8 Noroeste 0 -- -- 61
2019-03-25 01:00:00 9.6 5 Noroeste 9 Noroeste 0 -- -- 56
2019-03-25 00:00:00 12.3 3 Oeste 17 Sudoeste 0 -- -- 48
2019-03-24 23:00:00 13.6 14 Sudoeste 18 Sudoeste 0 -- -- 46
2019-03-24 22:00:00 14.1 10 Oeste 15 Oeste 0 -- -- 43
2019-03-24 21:00:00 15.2 4 Oeste 15 Oeste 0 -- -- 37
2019-03-24 20:00:00 17.7 12 Oeste 16 Sudoeste 0 -- -- 34
2019-03-24 19:00:00 21.2 0 Calma 6 Este 0 -- -- 31
2019-03-24 18:00:00 23.9 4 Este 11 Nordeste 0 -- -- 27
2019-03-24 17:00:00 23.9 8 Este 14 Este 0 -- -- 28
2019-03-24 16:00:00 23.9 7 Nordeste 17 Nordeste 0 -- -- 29
2019-03-24 15:00:00 24.3 6 Sur 18 Este 0 -- -- 27
2019-03-24 14:00:00 23.4 9 Sudeste 16 Sur 0 -- -- 29
2019-03-24 13:00:00 22 5 Este 16 Sudeste 0 -- -- 33
2019-03-24 12:00:00 19.8 6 Sur 14 Sur 0 -- -- 37
2019-03-24 11:00:00 16.4 7 Sur 15 Sudoeste 0 -- -- 42
2019-03-24 10:00:00 12.3 8 Nordeste 13 Nordeste 0 -- -- 60
2019-03-24 09:00:00 9 4 Este 7 Nordeste 0 -- -- 65
2019-03-24 08:00:00 5.6 2 Oeste 5 Oeste 0 -- -- 74
2019-03-24 07:00:00 3.8 4 Noroeste 7 Noroeste 0 -- -- 78
2019-03-24 06:00:00 4.3 6 Noroeste 7 Oeste 0 -- -- 77
2019-03-24 05:00:00 4.6 0 Calma 11 Oeste 0 -- -- 74
2019-03-24 04:00:00 5.7 5 Oeste 8 Noroeste 0 -- -- 71
2019-03-24 03:00:00 6.2 6 Oeste 8 Oeste 0 -- -- 70
2019-03-24 02:00:00 7.1 4 Noroeste 6 Oeste 0 -- -- 63
2019-03-24 01:00:00 8.5 0 Calma 6 Oeste 0 -- -- 57
2019-03-24 00:00:00 9.9 4 Oeste 8 Oeste 0 -- -- 53
2019-03-23 23:00:00 11.9 6 Noroeste 9 Noroeste 0 -- -- 47
2019-03-23 22:00:00 11.9 8 Oeste 12 Oeste 0 -- -- 48
2019-03-23 21:00:00 14 6 Noroeste 10 Oeste 0 -- -- 44
2019-03-23 20:00:00 15.7 6 Oeste 10 Sudoeste 0 -- -- 38
2019-03-23 19:00:00 19.6 5 Oeste 9 Sudoeste 0 -- -- 31
2019-03-23 18:00:00 22.9 6 Sudoeste 15 Sudoeste 0 -- -- 26
2019-03-23 17:00:00 22.9 10 Sur 15 Sur 0 -- -- 27
2019-03-23 16:00:00 23.2 6 Sur 17 Oeste 0 -- -- 28
2019-03-23 15:00:00 21.9 5 Nordeste 16 Este 0 -- -- 33
2019-03-23 14:00:00 21.1 6 Norte 13 Noroeste 0 -- -- 36
2019-03-23 13:00:00 19.7 5 Norte 12 Este 0 -- -- 39
2019-03-23 12:00:00 17.9 5 Nordeste 13 Este 0 -- -- 44
2019-03-23 11:00:00 14.7 5 Este 12 Nordeste 0 -- -- 54
2019-03-23 10:00:00 10.6 8 Nordeste 14 Nordeste 0 -- -- 65
2019-03-23 09:00:00 7.7 7 Nordeste 10 Nordeste 0 -- -- 73
2019-03-23 08:00:00 4.8 0 Calma 9 Noroeste 0 -- -- 81
2019-03-23 07:00:00 3.4 6 Oeste 8 Oeste 0 -- -- 85
2019-03-23 06:00:00 4.1 5 Noroeste 9 Oeste 0 -- -- 83
2019-03-23 05:00:00 4.8 6 Noroeste 8 Oeste 0 -- -- 79
2019-03-23 04:00:00 5.1 5 Oeste 9 Oeste 0 -- -- 79
2019-03-23 03:00:00 5.3 5 Noroeste 6 Oeste 0 -- -- 75
2019-03-23 02:00:00 6.3 3 Noroeste 8 Oeste 0 -- -- 71
2019-03-23 01:00:00 7.1 0 Calma 8 Noroeste 0 -- -- 67
2019-03-23 00:00:00 8.8 4 Oeste 14 Oeste 0 -- -- 62
2019-03-22 23:00:00 9.7 6 Oeste 10 Noroeste 0 -- -- 61
2019-03-22 22:00:00 10.8 3 Norte 9 Oeste 0 -- -- 58
2019-03-22 21:00:00 12.5 6 Noroeste 9 Oeste 0 -- -- 52
2019-03-22 20:00:00 14.2 3 Oeste 6 Oeste 0 -- -- 47
2019-03-22 19:00:00 17.9 0 Calma 6 Nordeste 0 -- -- 39
2019-03-22 18:00:00 19.6 4 Nordeste 10 Norte 0 -- -- 35
2019-03-22 17:00:00 20.3 3 Nordeste 13 Norte 0 -- -- 34
2019-03-22 16:00:00 20.2 5 Sudeste 12 Noroeste 0 -- -- 33
2019-03-22 15:00:00 19.7 6 Norte 14 Este 0 -- -- 32
2019-03-22 14:00:00 18.9 6 Sudeste 14 Este 0 -- -- 31
2019-03-22 13:00:00 17.7 5 Este 14 Sur 0 -- -- 34
2019-03-22 12:00:00 15.1 6 Nordeste 12 Este 0 -- -- 40
2019-03-22 11:00:00 12.8 8 Sudeste 15 Este 0 -- -- 46
2019-03-22 10:00:00 9.5 5 Nordeste 12 Nordeste 0 -- -- 57
2019-03-22 09:00:00 5.6 5 Este 9 Sudoeste 0 -- -- 67
2019-03-22 08:00:00 2.1 3 Sudoeste 8 Oeste 0 -- -- 77
2019-03-22 07:00:00 0.5 3 Norte 6 Oeste 0 -- -- 80
2019-03-22 06:00:00 1.5 4 Oeste 7 Oeste 0 -- -- 78
2019-03-22 05:00:00 1.2 4 Oeste 6 Oeste 0 -- -- 80
2019-03-22 04:00:00 1.7 5 Oeste 8 Oeste 0 -- -- 78
2019-03-22 03:00:00 2.4 5 Noroeste 7 Oeste 0 -- -- 77
2019-03-22 02:00:00 3.3 4 Oeste 6 Oeste 0 -- -- 75
2019-03-22 01:00:00 4.5 5 Noroeste 7 Oeste 0 -- -- 70
2019-03-22 00:00:00 5.8 4 Oeste 8 Noroeste 0 -- -- 66
2019-03-21 23:00:00 7 4 Oeste 13 Sudoeste 0 -- -- 60
2019-03-21 22:00:00 9.8 12 Oeste 19 Oeste 0 -- -- 52
2019-03-21 21:00:00 10.3 7 Oeste 15 Oeste 0 -- -- 46
2019-03-21 20:00:00 11.2 4 Oeste 5 Oeste 0 -- -- 42
2019-03-21 19:00:00 15.4 5 Nordeste 10 Este 0 -- -- 31
2019-03-21 18:00:00 17.1 5 Norte 9 Este 0 -- -- 27
2019-03-21 17:00:00 17.4 5 Nordeste 13 Sudeste 0 -- -- 27
2019-03-21 16:00:00 17.5 8 Nordeste 19 Sudeste 0 -- -- 28
2019-03-21 15:00:00 17.1 7 Oeste 15 Sudoeste 0 -- -- 30
2019-03-21 14:00:00 16.1 8 Sudoeste 19 Oeste 0 -- -- 34
2019-03-21 13:00:00 15 6 Sur 16 Sudoeste 0 -- -- 43
2019-03-21 12:00:00 12.8 8 Oeste 19 Oeste 0 -- -- 51
2019-03-21 11:00:00 11.7 7 Sudeste 11 Sudeste 0 -- -- 54
2019-03-21 10:00:00 8.9 6 Este 10 Este 0 -- -- 58
2019-03-21 09:00:00 5.6 5 Sur 10 Sur 0 -- -- 69
2019-03-21 08:00:00 1.7 4 Oeste 9 Oeste 0 -- -- 82
2019-03-21 07:00:00 0.5 5 Sudoeste 12 Noroeste 0 -- -- 84
2019-03-21 06:00:00 1.5 8 Oeste 13 Sudoeste 0 -- -- 85
2019-03-21 05:00:00 1.3 6 Oeste 10 Noroeste 0 -- -- 83
2019-03-21 04:00:00 2.6 6 Oeste 10 Oeste 0 -- -- 78
2019-03-21 03:00:00 2.8 4 Oeste 7 Noroeste 0 -- -- 78
2019-03-21 02:00:00 4.1 4 Oeste 7 Oeste 0 -- -- 75
2019-03-21 01:00:00 5.2 0 Calma 6 Noroeste 0 -- -- 69
2019-03-21 00:00:00 6.4 2 Oeste 11 Este 0 -- -- 62